createdAt,value
2019-05-13T00:00:53.841Z,0.00
2019-05-13T00:01:53.984Z,0.00
2019-05-13T00:02:54.435Z,0.00
2019-05-13T00:03:54.204Z,0.00
2019-05-13T00:04:53.343Z,0.00
2019-05-13T00:05:53.740Z,0.00
2019-05-13T00:06:55.123Z,0.00
2019-05-13T00:07:53.956Z,0.00
2019-05-13T00:08:54.335Z,0.00
2019-05-13T00:09:54.367Z,0.00
2019-05-13T00:10:54.131Z,0.00
2019-05-13T00:11:54.079Z,0.00
2019-05-13T00:12:53.984Z,0.00
2019-05-13T00:13:53.748Z,0.00
2019-05-13T00:14:54.019Z,0.00
2019-05-13T00:15:54.363Z,0.00
2019-05-13T00:16:53.662Z,0.00
2019-05-13T00:17:54.329Z,0.00
2019-05-13T00:18:53.575Z,0.00
2019-05-13T00:19:53.297Z,0.00
2019-05-13T00:20:54.176Z,0.00
2019-05-13T00:21:54.622Z,0.00
2019-05-13T00:22:53.827Z,0.00
2019-05-13T00:23:53.564Z,0.00
2019-05-13T00:24:54.277Z,0.00
2019-05-13T00:25:54.514Z,0.00
2019-05-13T00:26:53.232Z,0.00
2019-05-13T00:27:53.652Z,0.00
2019-05-13T00:28:53.527Z,0.00
2019-05-13T00:29:53.532Z,0.00
2019-05-13T00:30:54.236Z,0.00
2019-05-13T00:31:54.009Z,0.00
2019-05-13T00:32:54.562Z,0.00
2019-05-13T00:33:53.285Z,0.00
2019-05-13T00:34:53.453Z,0.00
2019-05-13T00:35:53.470Z,0.00
2019-05-13T00:37:07.332Z,0.00
2019-05-13T00:37:54.345Z,0.00
2019-05-13T00:38:53.442Z,0.00
2019-05-13T00:39:54.330Z,0.00
2019-05-13T00:40:54.534Z,0.00
2019-05-13T00:41:53.226Z,0.00
2019-05-13T00:42:54.535Z,0.00
2019-05-13T00:43:53.231Z,0.00
2019-05-13T00:44:53.203Z,0.00
2019-05-13T00:45:53.459Z,0.00
2019-05-13T00:46:53.783Z,0.00
2019-05-13T00:47:53.693Z,0.00
2019-05-13T00:48:54.085Z,0.00
2019-05-13T00:49:54.118Z,0.00
2019-05-13T00:50:54.404Z,0.00
2019-05-13T00:51:53.405Z,0.00
2019-05-13T00:52:53.621Z,0.00
2019-05-13T00:53:53.748Z,0.00
2019-05-13T00:54:53.501Z,0.00
2019-05-13T00:55:53.627Z,0.00
2019-05-13T00:56:54.721Z,0.00
2019-05-13T00:57:54.072Z,0.00
2019-05-13T00:58:54.079Z,0.00
2019-05-13T00:59:54.064Z,0.00
2019-05-13T01:00:54.591Z,0.00
2019-05-13T01:01:53.360Z,0.00
2019-05-13T01:02:53.385Z,0.00
2019-05-13T01:03:53.280Z,0.00
2019-05-13T01:04:53.544Z,0.00
2019-05-13T01:05:53.523Z,0.00
2019-05-13T01:06:53.776Z,0.00
2019-05-13T01:07:53.697Z,0.00
2019-05-13T01:08:53.581Z,0.00
2019-05-13T01:09:53.476Z,0.00
2019-05-13T01:10:53.687Z,0.00
2019-05-13T01:11:53.678Z,0.00
2019-05-13T01:12:53.939Z,0.00
2019-05-13T01:13:53.549Z,0.00
2019-05-13T01:14:53.450Z,0.00
2019-05-13T01:15:54.384Z,0.00
2019-05-13T01:16:54.391Z,0.00
2019-05-13T01:17:53.485Z,0.00
2019-05-13T01:18:53.792Z,0.00
2019-05-13T01:19:53.789Z,0.00
2019-05-13T01:20:53.832Z,0.00
2019-05-13T01:21:54.035Z,0.00
2019-05-13T01:22:54.115Z,0.00
2019-05-13T01:23:54.337Z,0.00
2019-05-13T01:24:54.145Z,0.00
2019-05-13T01:25:54.472Z,0.00
2019-05-13T01:26:54.140Z,0.00
2019-05-13T01:27:53.740Z,0.00
2019-05-13T01:28:53.560Z,0.00
2019-05-13T01:29:53.481Z,0.00
2019-05-13T01:30:53.947Z,0.00
2019-05-13T01:31:53.844Z,0.00
2019-05-13T01:32:54.023Z,0.00
2019-05-13T01:33:53.762Z,0.00
2019-05-13T01:34:53.793Z,0.00
2019-05-13T01:35:53.772Z,0.00
2019-05-13T01:36:53.609Z,0.00
2019-05-13T01:37:53.819Z,0.00
2019-05-13T01:38:54.085Z,0.00
2019-05-13T01:39:54.029Z,0.00
2019-05-13T01:40:53.989Z,0.00
2019-05-13T01:41:54.065Z,0.00
2019-05-13T01:42:54.179Z,0.00
2019-05-13T01:43:54.403Z,0.00
2019-05-13T01:44:53.869Z,0.00
2019-05-13T01:45:53.725Z,0.00
2019-05-13T01:46:53.766Z,0.00
2019-05-13T01:47:53.818Z,0.00
2019-05-13T01:48:54.361Z,0.00
2019-05-13T01:49:54.137Z,0.00
2019-05-13T01:50:53.370Z,0.00
2019-05-13T01:51:54.058Z,0.00
2019-05-13T01:52:53.295Z,0.00
2019-05-13T01:53:53.400Z,0.00
2019-05-13T01:54:54.256Z,0.00
2019-05-13T01:55:53.289Z,0.00
2019-05-13T01:56:53.544Z,0.00
2019-05-13T01:57:53.328Z,0.00
2019-05-13T01:58:53.967Z,0.00
2019-05-13T01:59:53.838Z,0.00
2019-05-13T02:00:54.921Z,0.00
2019-05-13T02:01:53.986Z,0.00
2019-05-13T02:02:54.330Z,0.00
2019-05-13T02:03:54.375Z,0.00
2019-05-13T02:04:53.246Z,0.00
2019-05-13T02:05:54.192Z,0.00
2019-05-13T02:06:54.216Z,0.00
2019-05-13T02:07:59.587Z,0.00
2019-05-13T02:08:54.558Z,0.00
2019-05-13T02:09:53.402Z,0.00
2019-05-13T02:10:54.428Z,0.00
2019-05-13T02:11:53.815Z,0.00
2019-05-13T02:12:53.560Z,0.00
2019-05-13T02:13:54.069Z,0.00
2019-05-13T02:14:53.416Z,0.00
2019-05-13T02:15:51.840Z,0.00
2019-05-13T02:16:53.578Z,0.00
2019-05-13T02:17:53.697Z,0.00
2019-05-13T02:18:53.703Z,0.00
2019-05-13T02:19:53.951Z,0.00
2019-05-13T02:20:54.846Z,0.00
2019-05-13T02:21:54.152Z,0.00
2019-05-13T02:22:53.621Z,0.00
2019-05-13T02:23:53.650Z,0.00
2019-05-13T02:24:53.499Z,0.00
2019-05-13T02:25:53.801Z,0.00
2019-05-13T02:26:54.162Z,4.00
2019-05-13T02:27:54.132Z,4.00
2019-05-13T02:28:53.983Z,4.00
2019-05-13T02:29:53.913Z,0.00
2019-05-13T02:30:51.693Z,0.00
2019-05-13T02:31:55.767Z,4.00
2019-05-13T02:32:53.137Z,4.00
2019-05-13T02:33:53.178Z,4.00
2019-05-13T02:34:53.253Z,4.00
2019-05-13T02:35:53.190Z,4.00
2019-05-13T02:36:52.729Z,8.00
2019-05-13T02:37:52.521Z,4.00
2019-05-13T02:38:53.205Z,8.00
2019-05-13T02:39:53.179Z,8.00
2019-05-13T02:40:52.795Z,8.00
2019-05-13T02:41:52.776Z,8.00
2019-05-13T02:42:52.278Z,12.00
2019-05-13T02:43:52.564Z,12.00
2019-05-13T02:44:52.921Z,12.00
2019-05-13T02:45:53.333Z,16.00
2019-05-13T02:46:52.462Z,16.00
2019-05-13T02:47:52.140Z,20.00
2019-05-13T02:48:52.781Z,24.00
2019-05-13T02:49:53.387Z,28.00
2019-05-13T02:50:53.114Z,32.00
2019-05-13T02:51:54.752Z,32.00
2019-05-13T02:52:53.121Z,40.00
2019-05-13T02:53:52.383Z,44.00
2019-05-13T02:54:52.777Z,48.00
2019-05-13T02:55:52.388Z,56.00
2019-05-13T02:56:52.651Z,64.00
2019-05-13T02:57:52.775Z,72.00
2019-05-13T02:58:52.633Z,80.00
2019-05-13T02:59:52.634Z,88.00
2019-05-13T03:00:53.267Z,100.00
2019-05-13T03:01:53.363Z,112.00
2019-05-13T03:02:52.457Z,124.00
2019-05-13T03:03:52.906Z,132.00
2019-05-13T03:04:52.303Z,152.00
2019-05-13T03:05:52.675Z,164.00
2019-05-13T03:06:52.107Z,180.00
2019-05-13T03:07:53.030Z,200.00
2019-05-13T03:08:54.434Z,216.00
2019-05-13T03:09:52.731Z,236.00
2019-05-13T03:10:53.158Z,256.00
2019-05-13T03:11:53.604Z,280.00
2019-05-13T03:12:53.447Z,304.00
2019-05-13T03:13:52.915Z,332.00
2019-05-13T03:14:53.251Z,360.00
2019-05-13T03:15:52.149Z,384.00
2019-05-13T03:16:52.544Z,416.00
2019-05-13T03:17:52.444Z,448.00
2019-05-13T03:18:52.326Z,488.00
2019-05-13T03:19:53.078Z,520.00
2019-05-13T03:20:53.023Z,560.00
2019-05-13T03:21:52.422Z,604.00
2019-05-13T03:22:52.533Z,652.00
2019-05-13T03:23:52.588Z,700.00
2019-05-13T03:24:52.372Z,756.00
2019-05-13T03:25:53.664Z,820.00
2019-05-13T03:26:53.247Z,880.00
2019-05-13T03:27:54.009Z,952.00
2019-05-13T03:28:52.404Z,1016.00
2019-05-13T03:29:53.320Z,1088.00
2019-05-13T03:30:56.475Z,1204.00
2019-05-13T03:31:55.919Z,1328.00
2019-05-13T03:32:59.868Z,1440.00
2019-05-13T03:33:55.763Z,1548.00
2019-05-13T03:34:55.858Z,1684.00
2019-05-13T03:35:55.935Z,1792.00
2019-05-13T03:36:57.050Z,1884.00
2019-05-13T03:37:52.764Z,1984.00
2019-05-13T03:39:05.224Z,2060.00
2019-05-13T03:39:52.408Z,2124.00
2019-05-13T03:40:52.617Z,2224.00
2019-05-13T03:41:52.895Z,2336.00
2019-05-13T03:42:53.609Z,2356.00
2019-05-13T03:43:53.304Z,2308.00
2019-05-13T03:44:52.441Z,2272.00
2019-05-13T03:45:52.616Z,2164.00
2019-05-13T03:46:52.936Z,2284.00
2019-05-13T03:47:52.699Z,2620.00
2019-05-13T03:48:52.951Z,3224.00
2019-05-13T03:49:53.282Z,3772.00
2019-05-13T03:50:53.321Z,3972.00
2019-05-13T03:51:53.418Z,4028.00
2019-05-13T03:52:52.606Z,4056.00
2019-05-13T03:53:53.411Z,4252.00
2019-05-13T03:54:52.115Z,4584.00
2019-05-13T03:55:53.895Z,4776.00
2019-05-13T03:56:53.065Z,4752.00
2019-05-13T03:57:53.215Z,4652.00
2019-05-13T03:58:53.659Z,4768.00
2019-05-13T03:59:52.626Z,5136.00
2019-05-13T04:00:51.848Z,5436.00
2019-05-13T04:01:52.401Z,5436.00
2019-05-13T04:02:52.155Z,5284.00
2019-05-13T04:03:52.808Z,5492.00
2019-05-13T04:04:53.017Z,5704.00
2019-05-13T04:05:52.824Z,5588.00
2019-05-13T04:06:53.006Z,5552.00
2019-05-13T04:07:52.322Z,5696.00
2019-05-13T04:08:53.717Z,5796.00
2019-05-13T04:09:52.503Z,5956.00
2019-05-13T04:10:52.496Z,6108.00
2019-05-13T04:11:52.654Z,6264.00
2019-05-13T04:12:52.717Z,6564.00
2019-05-13T04:13:52.600Z,7120.00
2019-05-13T04:14:52.798Z,7204.00
2019-05-13T04:15:52.982Z,7124.00
2019-05-13T04:16:53.200Z,7568.00
2019-05-13T04:17:53.078Z,7828.00
2019-05-13T04:18:53.650Z,7628.00
2019-05-13T04:19:52.982Z,7808.00
2019-05-13T04:20:53.039Z,7948.00
2019-05-13T04:21:52.883Z,7640.00
2019-05-13T04:22:52.950Z,7832.00
2019-05-13T04:23:53.071Z,8000.00
2019-05-13T04:24:53.006Z,8036.00
2019-05-13T04:25:53.700Z,8300.00
2019-05-13T04:26:53.325Z,8120.00
2019-05-13T04:27:52.360Z,8148.00
2019-05-13T04:28:52.585Z,8384.00
2019-05-13T04:29:52.745Z,8540.00
2019-05-13T04:30:52.626Z,8660.00
2019-05-13T04:31:53.240Z,8508.00
2019-05-13T04:32:53.297Z,8536.00
2019-05-13T04:33:53.126Z,8524.00
2019-05-13T04:34:52.906Z,8208.00
2019-05-13T04:35:52.954Z,8104.00
2019-05-13T04:36:52.021Z,8172.00
2019-05-13T04:37:52.656Z,8772.00
2019-05-13T04:38:52.891Z,9216.00
2019-05-13T04:39:54.938Z,9228.00
2019-05-13T04:40:52.844Z,9440.00
2019-05-13T04:41:52.897Z,10392.00
2019-05-13T04:42:53.614Z,11416.00
2019-05-13T04:43:53.660Z,11816.00
2019-05-13T04:44:52.951Z,12080.00
2019-05-13T04:45:52.384Z,12312.00
2019-05-13T04:46:52.287Z,12544.00
2019-05-13T04:47:52.953Z,12732.00
2019-05-13T04:48:53.095Z,12932.00
2019-05-13T04:49:53.215Z,13128.00
2019-05-13T04:50:53.169Z,13348.00
2019-05-13T04:51:52.321Z,13552.00
2019-05-13T04:52:52.523Z,13756.00
2019-05-13T04:53:53.654Z,14048.00
2019-05-13T04:54:52.782Z,14208.00
2019-05-13T04:55:52.681Z,14400.00
2019-05-13T04:56:52.556Z,14528.00
2019-05-13T04:57:53.408Z,14656.00
2019-05-13T04:58:52.837Z,14784.00
2019-05-13T04:59:51.793Z,14848.00
2019-05-13T05:01:01.646Z,14976.00
2019-05-13T05:01:57.859Z,15072.00
2019-05-13T05:02:55.057Z,15200.00
2019-05-13T05:03:53.109Z,15264.00
2019-05-13T05:04:52.500Z,15360.00
2019-05-13T05:05:52.691Z,15424.00
2019-05-13T05:06:52.555Z,15520.00
2019-05-13T05:07:52.528Z,15584.00
2019-05-13T05:08:52.309Z,15616.00
2019-05-13T05:10:16.833Z,15616.00
2019-05-13T05:10:53.855Z,15584.00
2019-05-13T05:11:52.709Z,15584.00
2019-05-13T05:12:51.875Z,15584.00
2019-05-13T05:13:53.084Z,15648.00
2019-05-13T05:14:52.270Z,15744.00
2019-05-13T05:15:52.311Z,15904.00
2019-05-13T05:16:52.123Z,16064.00
2019-05-13T05:17:52.195Z,16288.00
2019-05-13T05:18:52.477Z,16448.00
2019-05-13T05:19:52.264Z,16640.00
2019-05-13T05:20:51.796Z,16736.00
2019-05-13T05:21:52.656Z,16768.00
2019-05-13T05:22:51.279Z,16736.00
2019-05-13T05:23:51.525Z,16352.00
2019-05-13T05:24:51.898Z,15680.00
2019-05-13T05:25:52.046Z,14816.00
2019-05-13T05:26:52.064Z,14236.00
2019-05-13T05:27:51.469Z,14048.00
2019-05-13T05:28:51.763Z,13856.00
2019-05-13T05:29:51.601Z,13856.00
2019-05-13T05:30:51.773Z,13628.00
2019-05-13T05:31:51.806Z,12776.00
2019-05-13T05:32:51.653Z,12240.00
2019-05-13T05:33:51.626Z,11960.00
2019-05-13T05:34:51.793Z,11588.00
2019-05-13T05:35:51.893Z,11156.00
2019-05-13T05:36:51.898Z,10700.00
2019-05-13T05:37:52.094Z,10268.00
2019-05-13T05:38:51.376Z,9856.00
2019-05-13T05:39:51.248Z,9492.00
2019-05-13T05:40:51.117Z,9128.00
2019-05-13T05:41:51.427Z,8808.00
2019-05-13T05:42:51.678Z,8516.00
2019-05-13T05:43:52.046Z,8232.00
2019-05-13T05:44:51.683Z,7984.00
2019-05-13T05:45:51.274Z,7748.00
2019-05-13T05:46:51.512Z,7532.00
2019-05-13T05:47:51.128Z,7340.00
2019-05-13T05:48:50.714Z,7168.00
2019-05-13T05:49:51.487Z,7012.00
2019-05-13T05:50:51.567Z,6860.00
2019-05-13T05:51:51.496Z,6736.00
2019-05-13T05:52:51.350Z,6604.00
2019-05-13T05:53:51.616Z,6476.00
2019-05-13T05:54:51.603Z,6364.00
2019-05-13T05:55:51.638Z,6264.00
2019-05-13T05:56:51.809Z,6192.00
2019-05-13T05:57:49.354Z,6128.00
2019-05-13T05:58:49.340Z,6056.00
2019-05-13T05:59:51.079Z,6012.00
2019-05-13T06:00:51.951Z,5980.00
2019-05-13T06:01:52.340Z,5952.00
2019-05-13T06:02:49.305Z,5940.00
2019-05-13T06:03:49.287Z,5928.00
2019-05-13T06:04:52.003Z,5908.00
2019-05-13T06:05:51.206Z,5900.00
2019-05-13T06:06:52.066Z,5880.00
2019-05-13T06:07:51.334Z,5848.00
2019-05-13T06:08:51.511Z,5840.00
2019-05-13T06:09:51.444Z,5844.00
2019-05-13T06:10:52.920Z,5844.00
2019-05-13T06:11:49.225Z,5844.00
2019-05-13T06:12:49.180Z,5844.00
2019-05-13T06:13:52.156Z,5840.00
2019-05-13T06:14:52.408Z,5840.00
2019-05-13T06:15:51.251Z,5828.00
2019-05-13T06:16:51.715Z,5812.00
2019-05-13T06:17:51.634Z,5796.00
2019-05-13T06:18:49.114Z,5784.00
2019-05-13T06:19:51.094Z,5788.00
2019-05-13T06:20:51.229Z,5796.00
2019-05-13T06:21:51.283Z,5784.00
2019-05-13T06:22:51.420Z,5776.00
2019-05-13T06:23:51.710Z,5768.00
2019-05-13T06:24:49.077Z,5752.00
2019-05-13T06:25:49.083Z,5744.00
2019-05-13T06:26:49.031Z,5740.00
2019-05-13T06:27:51.114Z,5720.00
2019-05-13T06:28:49.008Z,5716.00
2019-05-13T06:29:50.315Z,5692.00
2019-05-13T06:30:51.286Z,5668.00
2019-05-13T06:31:48.983Z,5656.00
2019-05-13T06:32:48.970Z,5640.00
2019-05-13T06:33:51.288Z,5632.00
2019-05-13T06:34:48.937Z,5624.00
2019-05-13T06:35:48.945Z,5640.00
2019-05-13T06:36:48.915Z,5644.00
2019-05-13T06:37:48.905Z,5620.00
2019-05-13T06:38:51.170Z,5616.00
2019-05-13T06:39:51.087Z,5576.00
2019-05-13T06:41:00.474Z,5548.00
2019-05-13T06:41:51.803Z,5552.00
2019-05-13T06:42:48.851Z,5540.00
2019-05-13T06:43:48.833Z,5524.00
2019-05-13T06:44:51.211Z,5512.00
2019-05-13T06:45:51.232Z,5512.00
2019-05-13T06:46:51.482Z,5500.00
2019-05-13T06:47:48.818Z,5488.00
2019-05-13T06:48:48.809Z,5480.00
2019-05-13T06:49:48.767Z,5476.00
2019-05-13T06:50:48.755Z,5484.00
2019-05-13T06:51:48.776Z,5488.00
2019-05-13T06:52:51.209Z,5488.00
2019-05-13T06:53:48.759Z,5496.00
2019-05-13T06:54:48.725Z,5480.00
2019-05-13T06:55:48.703Z,5456.00
2019-05-13T06:56:48.692Z,5448.00
2019-05-13T06:57:48.686Z,5436.00
2019-05-13T06:58:48.697Z,5440.00
2019-05-13T06:59:48.656Z,5424.00
2019-05-13T07:00:48.654Z,5416.00
2019-05-13T07:01:48.695Z,5412.00
2019-05-13T07:02:48.638Z,5404.00
2019-05-13T07:03:48.621Z,5392.00
2019-05-13T07:04:48.603Z,5384.00
2019-05-13T07:05:48.590Z,5384.00
2019-05-13T07:06:48.577Z,5380.00
2019-05-13T07:07:48.564Z,5376.00
2019-05-13T07:08:48.572Z,5364.00
2019-05-13T07:09:48.558Z,5352.00
2019-05-13T07:10:48.561Z,5340.00
2019-05-13T07:11:48.566Z,5344.00
2019-05-13T07:12:48.511Z,5336.00
2019-05-13T07:13:48.498Z,5320.00
2019-05-13T07:14:48.493Z,5308.00
2019-05-13T07:15:48.484Z,5296.00
2019-05-13T07:16:48.462Z,5292.00
2019-05-13T07:17:48.456Z,5292.00
2019-05-13T07:18:48.468Z,5280.00
2019-05-13T07:19:48.431Z,5276.00
2019-05-13T07:20:48.434Z,5268.00
2019-05-13T07:21:48.432Z,5280.00
2019-05-13T07:22:48.405Z,5280.00
2019-05-13T07:23:53.979Z,5288.00
2019-05-13T07:24:51.780Z,5288.00
2019-05-13T07:25:48.371Z,5292.00
2019-05-13T07:26:48.367Z,5300.00
2019-05-13T07:27:48.366Z,5308.00
2019-05-13T07:28:48.331Z,5312.00
2019-05-13T07:29:48.315Z,5308.00
2019-05-13T07:30:48.308Z,5304.00
2019-05-13T07:31:48.301Z,5312.00
2019-05-13T07:32:48.306Z,5304.00
2019-05-13T07:33:48.277Z,5300.00
2019-05-13T07:34:48.280Z,5300.00
2019-05-13T07:35:48.283Z,5304.00
2019-05-13T07:36:48.242Z,5316.00
2019-05-13T07:37:48.240Z,5332.00
2019-05-13T07:38:48.230Z,5344.00
2019-05-13T07:39:48.210Z,5340.00
2019-05-13T07:40:48.195Z,5340.00
2019-05-13T07:41:48.187Z,5316.00
2019-05-13T07:42:48.171Z,5320.00
2019-05-13T07:43:48.173Z,5320.00
2019-05-13T07:44:48.153Z,5320.00
2019-05-13T07:45:48.139Z,5340.00
2019-05-13T07:46:48.157Z,5356.00
2019-05-13T07:47:48.112Z,5348.00
2019-05-13T07:48:48.110Z,5348.00
2019-05-13T07:49:48.094Z,5352.00
2019-05-13T07:50:59.028Z,5352.00
2019-05-13T07:51:49.069Z,5360.00
2019-05-13T07:52:48.063Z,5376.00
2019-05-13T07:53:48.058Z,5384.00
2019-05-13T07:54:48.049Z,5404.00
2019-05-13T07:55:48.035Z,5416.00
2019-05-13T07:56:48.022Z,5444.00
2019-05-13T07:57:48.014Z,5448.00
2019-05-13T07:58:47.993Z,5428.00
2019-05-13T07:59:48.001Z,5456.00
2019-05-13T08:00:47.974Z,5460.00
2019-05-13T08:01:47.959Z,5492.00
2019-05-13T08:02:47.953Z,5520.00
2019-05-13T08:03:47.935Z,5644.00
2019-05-13T08:04:49.485Z,5736.00
2019-05-13T08:05:47.935Z,5964.00
2019-05-13T08:06:47.903Z,6220.00
2019-05-13T08:07:47.894Z,6204.00
2019-05-13T08:08:47.881Z,6220.00
2019-05-13T08:09:47.871Z,6332.00
2019-05-13T08:10:47.867Z,6864.00
2019-05-13T08:12:04.307Z,7208.00
2019-05-13T08:12:48.839Z,7312.00
2019-05-13T08:13:47.829Z,7584.00
2019-05-13T08:14:47.814Z,7728.00
2019-05-13T08:15:47.805Z,8608.00
2019-05-13T08:16:47.807Z,9532.00
2019-05-13T08:17:48.462Z,9376.00
2019-05-13T08:18:47.771Z,8336.00
2019-05-13T08:19:47.770Z,7600.00
2019-05-13T08:20:47.756Z,5956.00
2019-05-13T08:21:47.737Z,5732.00
2019-05-13T08:22:47.785Z,5912.00
2019-05-13T08:23:47.738Z,7380.00
2019-05-13T08:24:50.950Z,7600.00
2019-05-13T08:25:48.690Z,7716.00
2019-05-13T08:26:50.221Z,7708.00
2019-05-13T08:27:48.673Z,8716.00
2019-05-13T08:29:00.387Z,9844.00
2019-05-13T08:29:48.658Z,9624.00
2019-05-13T08:30:47.642Z,9764.00
2019-05-13T08:31:48.466Z,9672.00
2019-05-13T08:32:47.621Z,8552.00
2019-05-13T08:33:47.620Z,8352.00
2019-05-13T08:34:52.528Z,8200.00
2019-05-13T08:35:53.899Z,9868.00
2019-05-13T08:36:48.597Z,10432.00
2019-05-13T08:37:47.575Z,9312.00
2019-05-13T08:38:47.631Z,8408.00
2019-05-13T08:39:47.564Z,7732.00
2019-05-13T08:40:47.525Z,8212.00
2019-05-13T08:41:47.516Z,8672.00
2019-05-13T08:42:47.509Z,8552.00
2019-05-13T08:43:47.498Z,8112.00
2019-05-13T08:44:47.502Z,7876.00
2019-05-13T08:45:47.493Z,6964.00
2019-05-13T08:46:47.509Z,7788.00
2019-05-13T08:47:47.444Z,6912.00
2019-05-13T08:48:47.435Z,7832.00
2019-05-13T08:49:47.420Z,7956.00
2019-05-13T08:50:47.423Z,8044.00
2019-05-13T08:51:47.399Z,8176.00
2019-05-13T08:52:47.388Z,8532.00
2019-05-13T08:53:47.389Z,8872.00
2019-05-13T08:54:47.364Z,9384.00
2019-05-13T08:55:47.395Z,10080.00
2019-05-13T08:56:47.363Z,10872.00
2019-05-13T08:57:47.332Z,11340.00
2019-05-13T08:58:47.322Z,11288.00
2019-05-13T08:59:47.332Z,10736.00
2019-05-13T09:00:47.298Z,10904.00
2019-05-13T09:01:47.293Z,11016.00
2019-05-13T09:02:47.270Z,10496.00
2019-05-13T09:03:47.265Z,11544.00
2019-05-13T09:04:47.248Z,11360.00
2019-05-13T09:05:47.240Z,10156.00
2019-05-13T09:06:47.239Z,10144.00
2019-05-13T09:07:47.235Z,9360.00
2019-05-13T09:08:47.221Z,8740.00
2019-05-13T09:09:47.195Z,8800.00
2019-05-13T09:10:47.195Z,8460.00
2019-05-13T09:11:47.171Z,8684.00
2019-05-13T09:12:47.163Z,8928.00
2019-05-13T09:13:47.147Z,8912.00
2019-05-13T09:14:47.195Z,9340.00
2019-05-13T09:15:47.125Z,9380.00
2019-05-13T09:16:47.117Z,11252.00
2019-05-13T09:17:47.102Z,11352.00
2019-05-13T09:18:47.089Z,10180.00
2019-05-13T09:19:47.095Z,9404.00
2019-05-13T09:20:47.067Z,9072.00
2019-05-13T09:21:47.056Z,8376.00
2019-05-13T09:22:47.047Z,8204.00
2019-05-13T09:23:47.065Z,9584.00
2019-05-13T09:24:47.036Z,9908.00
2019-05-13T09:25:47.019Z,10548.00
2019-05-13T09:26:46.997Z,11300.00
2019-05-13T09:27:46.990Z,12192.00
2019-05-13T09:28:46.979Z,12884.00
2019-05-13T09:29:46.980Z,12328.00
2019-05-13T09:30:46.956Z,12228.00
2019-05-13T09:31:46.940Z,12252.00
2019-05-13T09:32:46.949Z,11528.00
2019-05-13T09:33:46.919Z,11396.00
2019-05-13T09:34:46.911Z,11536.00
2019-05-13T09:35:50.034Z,12112.00
2019-05-13T09:36:46.881Z,13100.00
2019-05-13T09:37:46.878Z,12920.00
2019-05-13T09:38:46.881Z,12792.00
2019-05-13T09:39:46.859Z,12704.00
2019-05-13T09:40:46.869Z,11136.00
2019-05-13T09:41:46.828Z,11756.00
2019-05-13T09:42:51.620Z,11856.00
2019-05-13T09:43:47.809Z,13928.00
2019-05-13T09:44:46.795Z,14820.00
2019-05-13T09:45:46.795Z,15296.00
2019-05-13T09:46:46.796Z,14180.00
2019-05-13T09:47:47.026Z,14428.00
2019-05-13T09:48:46.751Z,14292.00
2019-05-13T09:49:46.770Z,12200.00
2019-05-13T09:50:46.730Z,11764.00
2019-05-13T09:51:46.720Z,11016.00
2019-05-13T09:52:46.704Z,10572.00
2019-05-13T09:53:46.695Z,10232.00
2019-05-13T09:54:46.686Z,10676.00
2019-05-13T09:55:46.699Z,10992.00
2019-05-13T09:56:46.670Z,11684.00
2019-05-13T09:57:46.654Z,11836.00
2019-05-13T09:58:46.638Z,11564.00
2019-05-13T09:59:46.644Z,11536.00
2019-05-13T10:00:46.622Z,11216.00
2019-05-13T10:01:46.606Z,11092.00
2019-05-13T10:02:46.592Z,11236.00
2019-05-13T10:03:54.922Z,11704.00
2019-05-13T10:04:47.570Z,12164.00
2019-05-13T10:05:46.560Z,12320.00
2019-05-13T10:06:46.572Z,12496.00
2019-05-13T10:07:46.538Z,11968.00
2019-05-13T10:08:46.552Z,10572.00
2019-05-13T10:09:48.415Z,9676.00
2019-05-13T10:10:46.522Z,9176.00
2019-05-13T10:11:46.518Z,8632.00
2019-05-13T10:13:07.055Z,8244.00
2019-05-13T10:13:47.470Z,8496.00
2019-05-13T10:20:36.227Z,7352.00
2019-05-13T10:21:36.190Z,6644.00
2019-05-13T10:23:07.984Z,6416.00
2019-05-13T10:24:07.958Z,6616.00
2019-05-13T10:25:39.754Z,7196.00
2019-05-13T10:26:42.654Z,7224.00
2019-05-13T10:28:13.303Z,7448.00
2019-05-13T10:29:12.513Z,7496.00
2019-05-13T10:30:12.505Z,7428.00
2019-05-13T10:31:12.482Z,7516.00
2019-05-13T10:32:12.470Z,7576.00
2019-05-13T10:33:12.685Z,7752.00
2019-05-13T10:34:14.101Z,8008.00
2019-05-13T10:35:12.431Z,8348.00
2019-05-13T10:36:12.495Z,9068.00
2019-05-13T10:37:12.409Z,9784.00
2019-05-13T10:38:13.413Z,10008.00
2019-05-13T10:39:12.410Z,9952.00
2019-05-13T10:40:12.382Z,10364.00
2019-05-13T10:41:12.406Z,10804.00
2019-05-13T10:42:12.420Z,11576.00
2019-05-13T10:43:30.074Z,11024.00
2019-05-13T10:44:13.332Z,9640.00
2019-05-13T10:45:13.060Z,9248.00
2019-05-13T10:46:12.855Z,9108.00
2019-05-13T10:47:12.329Z,8856.00
2019-05-13T10:48:13.451Z,8548.00
2019-05-13T10:49:12.531Z,8328.00
2019-05-13T10:50:12.269Z,8160.00
2019-05-13T10:52:13.242Z,8440.00
2019-05-13T10:53:12.457Z,8240.00
2019-05-13T10:54:12.218Z,9512.00
2019-05-13T10:55:13.030Z,10200.00
2019-05-13T10:56:12.199Z,11132.00
2019-05-13T10:57:13.755Z,11040.00
2019-05-13T10:58:12.439Z,11180.00
2019-05-13T10:59:12.771Z,12300.00
2019-05-13T11:00:12.447Z,13760.00
2019-05-13T11:01:12.160Z,13204.00
2019-05-13T11:02:13.395Z,12488.00
2019-05-13T11:03:12.299Z,10456.00
2019-05-13T11:04:13.513Z,10500.00
2019-05-13T11:05:12.494Z,12520.00
2019-05-13T11:06:12.091Z,13172.00
2019-05-13T11:07:12.275Z,12620.00
2019-05-13T11:08:12.065Z,14716.00
2019-05-13T11:09:12.956Z,16136.00
2019-05-13T11:10:13.338Z,16832.00
2019-05-13T11:11:12.992Z,15208.00
2019-05-13T11:12:12.421Z,14948.00
2019-05-13T11:13:12.014Z,12436.00
2019-05-13T11:14:15.557Z,11488.00
2019-05-13T11:15:11.988Z,10576.00
2019-05-13T11:16:12.324Z,10144.00
2019-05-13T11:17:12.960Z,8892.00
2019-05-13T11:18:19.079Z,8888.00
2019-05-13T11:19:12.943Z,9200.00
2019-05-13T11:20:12.479Z,9952.00
2019-05-13T11:21:12.998Z,11204.00
2019-05-13T11:22:12.440Z,12464.00
2019-05-13T11:23:12.360Z,13300.00
2019-05-13T11:24:12.781Z,13236.00
2019-05-13T11:25:12.462Z,12800.00
2019-05-13T11:26:12.910Z,12672.00
2019-05-13T11:27:12.092Z,12776.00
2019-05-13T11:28:12.355Z,12672.00
2019-05-13T11:29:12.229Z,12264.00
2019-05-13T11:30:11.823Z,11516.00
2019-05-13T11:31:11.814Z,10628.00
2019-05-13T11:32:13.298Z,10272.00
2019-05-13T11:33:11.800Z,8432.00
2019-05-13T11:34:11.776Z,7532.00
2019-05-13T11:35:12.810Z,7748.00
2019-05-13T11:36:12.896Z,7940.00
2019-05-13T11:37:12.408Z,8420.00
2019-05-13T11:38:12.276Z,8936.00
2019-05-13T11:39:13.059Z,9460.00
2019-05-13T11:40:12.132Z,10256.00
2019-05-13T11:41:11.877Z,11304.00
2019-05-13T11:42:13.650Z,12316.00
2019-05-13T11:43:12.276Z,12580.00
2019-05-13T11:44:16.044Z,11884.00
2019-05-13T11:45:11.934Z,11728.00
2019-05-13T11:46:11.641Z,11532.00
2019-05-13T11:47:12.711Z,10596.00
2019-05-13T11:48:13.216Z,9676.00
2019-05-13T11:49:11.921Z,8468.00
2019-05-13T11:50:12.108Z,7284.00
2019-05-13T11:51:13.057Z,6120.00
2019-05-13T11:52:12.103Z,5396.00
2019-05-13T11:53:31.409Z,4816.00
2019-05-13T11:54:13.939Z,5280.00
2019-05-13T11:55:13.021Z,6432.00
2019-05-13T11:56:12.179Z,6436.00
2019-05-13T11:57:12.416Z,6552.00
2019-05-13T11:58:13.883Z,6592.00
2019-05-13T11:59:14.130Z,6596.00
2019-05-13T12:00:13.475Z,6652.00
2019-05-13T12:01:11.502Z,6680.00
2019-05-13T12:02:13.660Z,6760.00
2019-05-13T12:03:11.460Z,6860.00
2019-05-13T12:04:11.450Z,6968.00
2019-05-13T12:05:11.437Z,7108.00
2019-05-13T12:06:11.435Z,7176.00
2019-05-13T12:07:13.247Z,7260.00
2019-05-13T12:08:12.680Z,7504.00
2019-05-13T12:09:12.969Z,7648.00
2019-05-13T12:10:12.446Z,7412.00
2019-05-13T12:11:13.964Z,7108.00
2019-05-13T12:12:13.071Z,6396.00
2019-05-13T12:13:12.538Z,7096.00
2019-05-13T12:14:37.259Z,7544.00
2019-05-13T12:15:38.869Z,6416.00
2019-05-13T12:16:13.033Z,7452.00
2019-05-13T12:17:14.098Z,7844.00
2019-05-13T12:18:12.613Z,7636.00
2019-05-13T12:19:11.995Z,7524.00
2019-05-13T12:20:12.193Z,8296.00
2019-05-13T12:21:12.373Z,7992.00
2019-05-13T12:22:13.118Z,8932.00
2019-05-13T12:23:12.988Z,10020.00
2019-05-13T12:24:11.493Z,10444.00
2019-05-13T12:25:13.737Z,10884.00
2019-05-13T12:26:12.883Z,11764.00